Time;durP1;ratioP1;P1;durP2;ratioP2;P2;SDS_P1;SDS_P2;PMS_P1;PMS_P2;Temp;Humidity;BMP_temperature;BMP_pressure;BME280_temperature;BME280_humidity;BME280_pressure;Samples;Min_cycle;Max_cycle;Signal;HPM_P1;HPM_P2
2023/03/06 00:02:14;;;;;;;22.73;8.75;;;;;;;-0.45;100.00;94719.25;5014019;28;20065;-74
2023/03/06 00:04:40;;;;;;;27.90;9.70;;;;;;;-0.41;100.00;94717.03;5007262;28;20049;-75
2023/03/06 00:07:05;;;;;;;28.13;9.63;;;;;;;-0.32;100.00;94713.13;5011414;28;20046;-74
2023/03/06 00:09:31;;;;;;;26.70;9.15;;;;;;;-0.36;100.00;94712.00;5009781;28;20038;-74
2023/03/06 00:11:56;;;;;;;24.90;9.38;;;;;;;-0.43;100.00;94706.13;5010802;28;20045;-74
2023/03/06 00:14:22;;;;;;;24.92;8.80;;;;;;;-0.35;100.00;94711.00;5006507;28;20038;-74
2023/03/06 00:16:47;;;;;;;23.95;10.27;;;;;;;-0.44;100.00;94710.50;5013051;28;20041;-74
2023/03/06 00:19:13;;;;;;;25.92;9.70;;;;;;;-0.44;100.00;94709.72;5014821;28;20072;-74
2023/03/06 00:21:40;;;;;;;23.73;9.15;;;;;;;-0.47;100.00;94699.84;5011502;28;20039;-74
2023/03/06 00:24:05;;;;;;;21.27;9.27;;;;;;;-0.50;100.00;94697.66;5010002;28;20048;-74
2023/03/06 00:26:32;;;;;;;23.02;9.70;;;;;;;-0.56;100.00;94699.31;5015452;28;20116;-74
2023/03/06 00:28:58;;;;;;;25.10;9.18;;;;;;;-0.60;100.00;94691.25;5011204;28;20103;-74
2023/03/06 00:31:24;;;;;;;22.95;9.75;;;;;;;-0.57;100.00;94690.78;5005455;28;20035;-73
2023/03/06 00:33:49;;;;;;;22.33;8.23;;;;;;;-0.55;100.00;94686.22;5010932;28;20049;-74
2023/03/06 00:36:14;;;;;;;22.33;9.13;;;;;;;-0.51;100.00;94688.34;5014109;28;20053;-74
2023/03/06 00:38:40;;;;;;;23.25;8.00;;;;;;;-0.43;100.00;94693.19;5009706;28;20045;-74
2023/03/06 00:41:09;;;;;;;25.38;9.40;;;;;;;-0.51;100.00;94681.38;5009118;28;20065;-74
2023/03/06 00:43:35;;;;;;;21.30;8.05;;;;;;;-0.48;100.00;94677.56;5015400;28;20049;-74
2023/03/06 00:46:01;;;;;;;22.90;8.52;;;;;;;-0.53;100.00;94678.25;5009504;28;20041;-74
2023/03/06 00:48:26;;;;;;;21.80;8.38;;;;;;;-0.62;100.00;94672.56;5011626;28;20497;-74
2023/03/06 00:50:52;;;;;;;24.95;8.80;;;;;;;-0.64;100.00;94674.59;5011346;28;20037;-74
2023/03/06 00:53:17;;;;;;;22.15;8.48;;;;;;;-0.65;100.00;94662.66;5010078;28;20049;-74
2023/03/06 00:55:46;;;;;;;24.00;9.85;;;;;;;-0.61;100.00;94657.88;5010331;28;20121;-74
2023/03/06 00:58:12;;;;;;;21.15;9.18;;;;;;;-0.68;100.00;94652.78;5009107;28;20041;-74
2023/03/06 01:00:37;;;;;;;23.73;9.07;;;;;;;-0.64;100.00;94653.91;5010786;28;20037;-74
2023/03/06 01:03:03;;;;;;;24.98;8.73;;;;;;;-0.68;100.00;94645.03;5005713;28;20083;-74
2023/03/06 01:05:33;;;;;;;19.55;9.20;;;;;;;-0.69;100.00;94648.59;5007395;28;20073;-73
2023/03/06 01:07:58;;;;;;;24.73;8.73;;;;;;;-0.69;100.00;94640.84;5009081;28;20045;-74
2023/03/06 01:10:24;;;;;;;20.23;8.13;;;;;;;-0.79;100.00;94635.44;5012225;28;20100;-74
2023/03/06 01:12:49;;;;;;;29.17;9.77;;;;;;;-0.80;100.00;94628.72;5008298;28;20052;-74
2023/03/06 01:15:15;;;;;;;25.58;8.82;;;;;;;-0.74;100.00;94635.56;5010337;28;20238;-73
2023/03/06 01:17:40;;;;;;;25.02;8.98;;;;;;;-0.68;100.00;94626.94;5009394;28;20125;-73
2023/03/06 01:20:06;;;;;;;20.63;8.85;;;;;;;-0.62;100.00;94626.03;5016692;28;20119;-73
2023/03/06 01:22:32;;;;;;;25.17;8.98;;;;;;;-0.72;100.00;94628.38;5004625;28;20038;-73
2023/03/06 01:24:57;;;;;;;27.25;8.98;;;;;;;-0.78;100.00;94626.69;5010678;28;20070;-73
2023/03/06 01:27:23;;;;;;;27.00;8.85;;;;;;;-0.81;100.00;94616.78;5015591;28;20056;-73
2023/03/06 01:29:48;;;;;;;26.65;9.45;;;;;;;-0.77;100.00;94612.75;5007953;28;20042;-73
2023/03/06 01:32:14;;;;;;;21.40;9.52;;;;;;;-0.75;100.00;94605.56;5003640;28;20057;-73
2023/03/06 01:34:39;;;;;;;26.52;9.02;;;;;;;-0.79;100.00;94604.44;5008763;28;20096;-73
2023/03/06 01:37:05;;;;;;;20.65;8.43;;;;;;;-0.81;100.00;94606.47;5008608;28;20446;-73
2023/03/06 01:39:30;;;;;;;24.13;8.95;;;;;;;-0.81;100.00;94593.53;5012121;28;20465;-73
2023/03/06 01:41:56;;;;;;;22.48;8.30;;;;;;;-0.83;100.00;94587.78;5009592;28;20042;-73
2023/03/06 01:44:21;;;;;;;21.15;7.82;;;;;;;-0.82;100.00;94579.03;5001121;28;20045;-73
2023/03/06 01:46:47;;;;;;;26.02;8.60;;;;;;;-0.82;100.00;94571.28;5008061;28;20517;-73
2023/03/06 01:49:20;;;;;;;23.58;9.50;;;;;;;-0.81;100.00;94565.13;5012435;28;20056;-73
2023/03/06 01:52:00;;;;;;;21.80;8.52;;;;;;;-0.85;100.00;94571.75;5002106;28;20049;-73
2023/03/06 01:54:40;;;;;;;20.35;9.02;;;;;;;-0.98;100.00;94552.81;5009848;28;20053;-73
2023/03/06 01:57:13;;;;;;;23.58;8.88;;;;;;;-0.93;100.00;94552.97;5009892;28;20045;-73
2023/03/06 01:59:41;;;;;;;21.80;8.10;;;;;;;-0.91;100.00;94550.94;5006220;28;20050;-74
2023/03/06 02:02:09;;;;;;;21.15;8.20;;;;;;;-0.90;100.00;94547.34;5010226;28;20048;-74
2023/03/06 02:04:38;;;;;;;24.08;8.10;;;;;;;-0.86;100.00;94537.38;5000521;28;20033;-74
2023/03/06 02:07:06;;;;;;;21.45;7.93;;;;;;;-0.93;100.00;94537.47;5010379;28;20046;-73
2023/03/06 02:09:33;;;;;;;20.42;8.38;;;;;;;-0.96;100.00;94535.31;5006510;28;20076;-74
2023/03/06 02:12:00;;;;;;;27.23;8.82;;;;;;;-0.98;100.00;94545.06;5007857;28;20115;-74
2023/03/06 02:14:26;;;;;;;24.42;9.40;;;;;;;-0.94;100.00;94535.88;5009230;28;20045;-73
2023/03/06 02:16:52;;;;;;;22.85;8.65;;;;;;;-0.99;100.00;94538.34;5010202;28;20037;-75
2023/03/06 02:19:26;;;;;;;22.85;8.70;;;;;;;-1.01;100.00;94527.44;5005657;28;20116;-73
2023/03/06 02:21:52;;;;;;;20.45;8.30;;;;;;;-1.05;100.00;94526.31;5009228;28;20049;-73
2023/03/06 02:24:24;;;;;;;22.52;8.48;;;;;;;-1.09;100.00;94522.63;5001915;28;20049;-73
2023/03/06 02:26:51;;;;;;;17.83;7.38;;;;;;;-1.14;100.00;94522.47;5009104;28;20088;-73
2023/03/06 02:29:22;;;;;;;26.33;8.20;;;;;;;-1.31;100.00;94520.50;5006232;28;20418;-73
2023/03/06 02:31:49;;;;;;;20.90;8.27;;;;;;;-1.47;100.00;94515.94;5016467;28;20042;-73
2023/03/06 02:34:14;;;;;;;23.02;8.43;;;;;;;-1.43;100.00;94511.94;5005977;28;20490;-73
2023/03/06 02:36:46;;;;;;;22.42;8.18;;;;;;;-1.45;100.00;94508.78;5008595;28;20038;-73
2023/03/06 02:39:13;;;;;;;20.15;7.75;;;;;;;-1.47;100.00;94505.63;5010965;28;20044;-74
2023/03/06 02:41:39;;;;;;;19.30;7.72;;;;;;;-1.49;100.00;94502.50;5008116;28;20050;-73
2023/03/06 02:44:05;;;;;;;16.90;7.60;;;;;;;-1.57;100.00;94504.38;5001774;28;20477;-73
2023/03/06 02:46:31;;;;;;;24.58;8.02;;;;;;;-1.57;100.00;94496.63;5007571;28;20042;-73
2023/03/06 02:48:56;;;;;;;23.67;8.15;;;;;;;-1.52;100.00;94497.75;5017537;28;20100;-74
2023/03/06 02:51:22;;;;;;;20.02;8.10;;;;;;;-1.52;100.00;94497.75;5009748;28;20057;-73
2023/03/06 02:53:47;;;;;;;26.90;8.38;;;;;;;-1.55;100.00;94495.59;4998810;28;20053;-73
2023/03/06 02:56:14;;;;;;;19.02;7.88;;;;;;;-1.53;100.00;94491.81;5009865;28;20510;-74
2023/03/06 02:58:39;;;;;;;26.60;9.35;;;;;;;-1.52;100.00;94482.25;5010004;28;20048;-74
2023/03/06 03:01:05;;;;;;;24.30;8.70;;;;;;;-1.57;100.00;94478.56;5013590;28;20042;-74
2023/03/06 03:03:32;;;;;;;23.60;8.48;;;;;;;-1.54;100.00;94485.06;5002072;28;20434;-74
2023/03/06 03:05:59;;;;;;;19.50;7.75;;;;;;;-1.58;100.00;94484.72;5012321;28;20038;-74
2023/03/06 03:08:24;;;;;;;19.90;8.02;;;;;;;-1.51;100.00;94479.47;5014627;28;20130;-74
2023/03/06 03:10:50;;;;;;;20.75;8.18;;;;;;;-1.55;100.00;94472.38;5011834;28;20046;-74
2023/03/06 03:13:16;;;;;;;19.67;8.82;;;;;;;-1.55;100.00;94473.19;5011339;28;20053;-74
2023/03/06 03:15:41;;;;;;;19.25;7.35;;;;;;;-1.51;100.00;94470.94;5011737;28;20077;-74
2023/03/06 03:18:07;;;;;;;18.33;7.28;;;;;;;-1.51;100.00;94469.13;5012038;28;20428;-74
2023/03/06 03:20:32;;;;;;;17.67;7.88;;;;;;;-1.50;100.00;94475.09;5007019;28;20504;-74
2023/03/06 03:22:58;;;;;;;20.52;8.68;;;;;;;-1.54;100.00;94471.38;5013668;28;20117;-74
2023/03/06 03:25:25;;;;;;;22.90;8.48;;;;;;;-1.60;100.00;94466.09;5015183;28;20156;-74
2023/03/06 03:27:50;;;;;;;19.23;9.13;;;;;;;-1.63;100.00;94461.38;5001911;28;20120;-74
2023/03/06 03:30:16;;;;;;;22.23;8.32;;;;;;;-1.60;100.00;94463.50;5010929;28;20468;-74
2023/03/06 03:32:42;;;;;;;22.85;8.52;;;;;;;-1.59;100.00;94457.34;5014356;28;20092;-74
2023/03/06 03:35:08;;;;;;;23.83;7.80;;;;;;;-1.66;100.00;94456.66;5006561;28;20038;-73
2023/03/06 03:37:34;;;;;;;22.55;7.78;;;;;;;-1.62;100.00;94460.38;5011449;28;20042;-74
2023/03/06 03:40:01;;;;;;;25.13;8.55;;;;;;;-1.61;100.00;94459.38;5012786;28;20445;-74
2023/03/06 03:42:26;;;;;;;19.88;7.20;;;;;;;-1.60;100.00;94455.75;5006611;28;20072;-74
2023/03/06 03:44:52;;;;;;;20.20;7.57;;;;;;;-1.59;100.00;94449.59;5011921;28;20038;-74
2023/03/06 03:47:17;;;;;;;17.35;7.07;;;;;;;-1.55;100.00;94451.75;5010570;28;20045;-74
2023/03/06 03:49:43;;;;;;;21.48;8.10;;;;;;;-1.54;100.00;94443.78;5014737;28;20045;-74
2023/03/06 03:52:08;;;;;;;18.27;8.00;;;;;;;-1.53;100.00;94449.75;5008919;28;20050;-74
2023/03/06 03:54:34;;;;;;;21.90;8.00;;;;;;;-1.54;100.00;94445.59;5010888;28;20559;-74
2023/03/06 03:56:59;;;;;;;22.80;8.40;;;;;;;-1.51;100.00;94447.72;5011986;28;20046;-74
2023/03/06 03:59:25;;;;;;;25.58;8.30;;;;;;;-1.51;100.00;94447.72;5005776;28;20093;-74
2023/03/06 04:01:51;;;;;;;22.25;7.85;;;;;;;-1.51;100.00;94442.56;5007924;28;20088;-74
2023/03/06 04:04:17;;;;;;;26.95;9.07;;;;;;;-1.51;100.00;94447.72;5005036;28;20038;-74
2023/03/06 04:06:42;;;;;;;24.08;8.35;;;;;;;-1.55;100.00;94444.00;5009424;28;20049;-74
2023/03/06 04:09:08;;;;;;;20.48;8.40;;;;;;;-1.53;100.00;94440.19;5009815;28;20402;-74
2023/03/06 04:11:33;;;;;;;25.80;8.63;;;;;;;-1.50;100.00;94444.16;5011375;28;20042;-74
2023/03/06 04:13:59;;;;;;;20.75;7.78;;;;;;;-1.49;100.00;94435.41;5012843;28;20453;-74
2023/03/06 04:16:24;;;;;;;24.25;8.25;;;;;;;-1.51;100.00;94432.25;5012137;28;20045;-74
2023/03/06 04:18:50;;;;;;;22.50;8.05;;;;;;;-1.55;100.00;94428.53;5010369;28;20038;-73
2023/03/06 04:21:16;;;;;;;21.65;8.07;;;;;;;-1.57;100.00;94429.53;5009976;28;20041;-74
2023/03/06 04:23:41;;;;;;;18.05;7.90;;;;;;;-1.57;100.00;94423.59;5011913;28;20038;-74
2023/03/06 04:26:07;;;;;;;23.23;8.48;;;;;;;-1.60;100.00;94409.31;5009721;28;20042;-74
2023/03/06 04:28:32;;;;;;;23.95;8.43;;;;;;;-1.62;100.00;94423.47;5013695;28;20045;-74
2023/03/06 04:30:58;;;;;;;19.00;6.93;;;;;;;-1.42;100.00;94415.44;5007442;28;20417;-73
2023/03/06 04:33:23;;;;;;;23.42;7.78;;;;;;;-1.54;100.00;94417.19;5004558;28;20172;-74
2023/03/06 04:35:49;;;;;;;19.75;8.02;;;;;;;-1.55;100.00;94415.63;5011371;28;20033;-74
2023/03/06 04:38:15;;;;;;;20.55;7.70;;;;;;;-1.53;100.00;94413.63;5010687;28;20422;-73
2023/03/06 04:40:40;;;;;;;19.17;7.00;;;;;;;-1.52;100.00;94420.34;5009212;28;20042;-74
2023/03/06 04:43:06;;;;;;;20.05;7.63;;;;;;;-1.55;100.00;94420.78;5008202;28;20065;-74
2023/03/06 04:45:33;;;;;;;21.25;8.23;;;;;;;-1.50;100.00;94423.50;5010406;28;20042;-73
2023/03/06 04:47:59;;;;;;;16.65;7.32;;;;;;;-1.57;100.00;94414.06;5010542;28;20088;-74
2023/03/06 04:50:27;;;;;;;21.98;8.00;;;;;;;-1.51;100.00;94412.38;5010598;28;20095;-74
2023/03/06 04:52:53;;;;;;;20.92;8.35;;;;;;;-1.51;100.00;94406.44;5003000;28;20053;-74
2023/03/06 04:55:18;;;;;;;20.45;7.53;;;;;;;-1.51;100.00;94411.59;5015991;28;20045;-73
2023/03/06 04:57:45;;;;;;;23.90;8.02;;;;;;;-1.47;100.00;94417.91;5009407;28;20107;-74
2023/03/06 05:00:20;;;;;;;21.73;6.90;;;;;;;-1.54;100.00;94412.03;5009377;28;20042;-73
2023/03/06 05:02:46;;;;;;;18.13;7.40;;;;;;;-1.54;100.00;94405.06;5008261;28;20096;-74
2023/03/06 05:05:12;;;;;;;17.98;6.57;;;;;;;-1.47;100.00;94407.56;5005294;28;20038;-74
2023/03/06 05:07:38;;;;;;;19.30;7.32;;;;;;;-1.47;100.00;94412.72;5008880;28;20046;-74
2023/03/06 05:10:04;;;;;;;31.55;8.00;;;;;;;-1.46;100.00;94406.56;5009731;28;20048;-74
2023/03/06 05:12:30;;;;;;;21.23;8.60;;;;;;;-1.52;100.00;94399.69;5005936;28;20042;-73
2023/03/06 05:14:57;;;;;;;18.73;7.20;;;;;;;-1.48;100.00;94406.00;5010260;28;20049;-75
2023/03/06 05:17:22;;;;;;;21.65;8.02;;;;;;;-1.44;100.00;94397.59;5008982;28;20045;-74
2023/03/06 05:19:48;;;;;;;19.92;7.90;;;;;;;-1.44;100.00;94401.97;5013041;28;20061;-73
2023/03/06 05:22:13;;;;;;;22.80;7.55;;;;;;;-1.46;100.00;94407.34;5009303;28;20080;-74
2023/03/06 05:24:39;;;;;;;23.38;7.13;;;;;;;-1.43;100.00;94403.53;5011068;28;20041;-74
2023/03/06 05:27:04;;;;;;;26.48;7.93;;;;;;;-1.42;100.00;94399.97;5010112;28;20058;-74
2023/03/06 05:29:30;;;;;;;16.02;7.35;;;;;;;-1.41;100.00;94398.94;5005030;28;20062;-74
2023/03/06 05:31:55;;;;;;;22.88;8.45;;;;;;;-1.42;100.00;94394.81;5008806;28;20046;-74
2023/03/06 05:34:21;;;;;;;21.27;8.93;;;;;;;-1.44;100.00;94386.47;5003971;28;20053;-74
2023/03/06 05:36:47;;;;;;;21.15;8.13;;;;;;;-1.42;100.00;94395.59;5008898;28;20058;-74
2023/03/06 05:39:12;;;;;;;19.70;7.85;;;;;;;-1.41;100.00;94391.19;5009738;28;20046;-74
2023/03/06 05:41:38;;;;;;;18.08;7.80;;;;;;;-1.41;100.00;94386.03;5007827;28;20066;-74
2023/03/06 05:44:03;;;;;;;17.52;8.00;;;;;;;-1.45;100.00;94390.06;5006838;28;20050;-74
2023/03/06 05:46:29;;;;;;;21.38;7.50;;;;;;;-1.47;100.00;94387.69;5007443;28;20080;-75
2023/03/06 05:48:56;;;;;;;23.85;7.63;;;;;;;-1.47;100.00;94392.09;5009477;28;20033;-74
2023/03/06 05:51:22;;;;;;;20.77;7.80;;;;;;;-1.49;100.00;94394.13;5006868;28;20038;-74
2023/03/06 05:53:48;;;;;;;19.05;8.00;;;;;;;-1.49;100.00;94394.13;5010327;28;20034;-74
2023/03/06 05:56:13;;;;;;;21.40;7.85;;;;;;;-1.47;100.00;94398.03;5008068;28;20045;-74
2023/03/06 05:58:39;;;;;;;21.33;8.05;;;;;;;-1.49;100.00;94401.84;5008984;28;20037;-74
2023/03/06 06:01:14;;;;;;;23.83;8.02;;;;;;;-1.40;100.00;94395.34;5009455;28;20101;-75
2023/03/06 06:03:39;;;;;;;23.23;7.65;;;;;;;-1.40;100.00;94392.78;5003883;28;20401;-74
2023/03/06 06:06:06;;;;;;;24.70;8.20;;;;;;;-1.32;100.00;94395.03;5007696;28;20057;-74
2023/03/06 06:08:32;;;;;;;21.77;9.02;;;;;;;-1.30;100.00;94393.00;5010292;28;20425;-74
2023/03/06 06:10:58;;;;;;;27.38;9.65;;;;;;;-1.20;100.00;94394.28;5009418;28;20046;-74
2023/03/06 06:13:23;;;;;;;27.13;10.80;;;;;;;-1.20;100.00;94407.19;5004511;28;20057;-74
2023/03/06 06:15:49;;;;;;;28.45;10.65;;;;;;;-1.14;100.00;94406.28;5008436;28;20117;-74
2023/03/06 06:18:14;;;;;;;38.83;11.15;;;;;;;-1.07;100.00;94401.81;5016656;28;20037;-74
2023/03/06 06:20:40;;;;;;;44.63;10.38;;;;;;;-1.00;100.00;94394.72;5007920;28;20121;-75
2023/03/06 06:23:05;;;;;;;22.27;9.40;;;;;;;-1.02;100.00;94404.50;5003627;28;20049;-74
2023/03/06 06:25:32;;;;;;;19.17;9.30;;;;;;;-0.94;100.00;94405.97;5013618;28;20061;-75
2023/03/06 06:27:57;;;;;;;23.67;9.45;;;;;;;-0.79;100.00;94402.94;5011392;28;20096;-74
2023/03/06 06:30:23;;;;;;;23.98;9.07;;;;;;;-0.85;100.00;94411.59;5004820;28;20050;-72
2023/03/06 06:32:49;;;;;;;27.58;9.30;;;;;;;-0.82;100.00;94409.34;5007391;28;20046;-74
2023/03/06 06:35:15;;;;;;;21.30;8.77;;;;;;;-0.75;100.00;94409.22;5012180;28;20041;-74
2023/03/06 06:37:43;;;;;;;29.30;8.68;;;;;;;-0.69;100.00;94403.16;5009890;28;20505;-74
2023/03/06 06:40:09;;;;;;;23.25;9.05;;;;;;;-0.53;100.00;94401.69;5009235;28;20037;-75
2023/03/06 06:42:35;;;;;;;21.65;8.27;;;;;;;-0.48;100.00;94413.94;5007422;28;20042;-74
2023/03/06 06:45:03;;;;;;;30.77;9.27;;;;;;;-0.46;100.00;94411.91;5009619;28;20041;-75
2023/03/06 06:47:29;;;;;;;26.48;8.82;;;;;;;-0.44;100.00;94409.88;5008527;28;20117;-75
2023/03/06 06:49:55;;;;;;;19.58;8.13;;;;;;;-0.38;100.00;94409.75;5008926;28;20104;-74
2023/03/06 06:52:23;;;;;;;22.23;8.50;;;;;;;-0.37;100.00;94415.72;5010711;28;20555;-75
2023/03/06 06:54:48;;;;;;;22.58;9.07;;;;;;;-0.44;100.00;94415.84;5011457;28;20077;-75
2023/03/06 06:57:14;;;;;;;20.58;7.78;;;;;;;-0.40;100.00;94405.84;5003238;28;20046;-76
2023/03/06 06:59:40;;;;;;;22.05;8.50;;;;;;;-0.39;100.00;94428.88;5007451;28;20049;-75
2023/03/06 07:02:06;;;;;;;23.77;8.25;;;;;;;-0.30;100.00;94418.97;5004611;28;20267;-77
2023/03/06 07:04:32;;;;;;;24.40;8.25;;;;;;;-0.24;100.00;94425.03;5002294;28;20038;-76
2023/03/06 07:06:57;;;;;;;19.67;7.85;;;;;;;-0.16;100.00;94422.06;5009713;28;20041;-75
2023/03/06 07:09:23;;;;;;;23.70;9.02;;;;;;;-0.01;100.00;94424.19;5008637;28;20042;-76
2023/03/06 07:11:49;;;;;;;20.40;8.65;;;;;;;-0.09;100.00;94411.59;5004080;28;20085;-76
2023/03/06 07:14:14;;;;;;;28.42;8.57;;;;;;;0.10;100.00;94414.81;5002700;28;20490;-73
2023/03/06 07:16:40;;;;;;;22.13;9.02;;;;;;;0.07;100.00;94410.91;5009245;28;20045;-74
2023/03/06 07:19:07;;;;;;;20.02;8.57;;;;;;;0.17;100.00;94415.44;5007932;28;20049;-74
2023/03/06 07:21:32;;;;;;;23.45;9.70;;;;;;;0.26;100.00;94413.28;5013021;28;20042;-73
2023/03/06 07:23:58;;;;;;;23.95;8.57;;;;;;;0.11;100.00;94416.38;5007334;28;20792;-75
2023/03/06 07:26:25;;;;;;;28.50;9.40;;;;;;;0.17;100.00;94416.25;5007998;28;20045;-74
2023/03/06 07:28:52;;;;;;;23.02;7.97;;;;;;;0.19;100.00;94417.81;5007367;28;20060;-74
2023/03/06 07:31:21;;;;;;;22.85;8.88;;;;;;;0.21;100.00;94410.63;5006962;28;20042;-74
2023/03/06 07:33:48;;;;;;;20.40;8.38;;;;;;;0.33;100.00;94419.09;5006350;28;20165;-73
2023/03/06 07:36:13;;;;;;;20.83;7.97;;;;;;;0.43;100.00;94424.47;5009884;28;20058;-74
2023/03/06 07:38:39;;;;;;;24.42;8.75;;;;;;;0.33;100.00;94419.09;5008894;28;20065;-74
2023/03/06 07:41:08;;;;;;;23.27;8.88;;;;;;;0.31;100.00;94415.97;5009187;28;20042;-75
2023/03/06 07:43:34;;;;;;;22.20;8.43;;;;;;;0.35;100.00;94417.09;5007187;28;20038;-74
2023/03/06 07:45:59;;;;;;;21.65;8.63;;;;;;;0.25;100.00;94417.69;5012729;28;20092;-73
2023/03/06 07:48:26;;;;;;;25.48;9.40;;;;;;;0.37;100.00;94420.22;5013083;28;20396;-75
2023/03/06 07:50:59;;;;;;;21.85;7.60;;;;;;;0.36;100.00;94412.69;5019214;28;20038;-75
2023/03/06 07:53:25;;;;;;;20.15;7.72;;;;;;;0.49;100.00;94418.38;5011743;28;20050;-73
2023/03/06 07:55:51;;;;;;;19.50;7.95;;;;;;;0.56;100.00;94422.59;5010109;28;20044;-74
2023/03/06 07:58:17;;;;;;;20.67;7.82;;;;;;;0.48;100.00;94427.16;5011034;28;20073;-73
2023/03/06 08:00:42;;;;;;;18.58;7.22;;;;;;;0.45;100.00;94422.44;5011291;28;20045;-75
2023/03/06 08:03:10;;;;;;;22.83;9.48;;;;;;;0.51;100.00;94431.84;5008508;28;20085;-73
2023/03/06 08:05:37;;;;;;;17.50;8.05;;;;;;;0.68;100.00;94431.13;5007096;28;20084;-74
2023/03/06 08:08:03;;;;;;;22.60;7.68;;;;;;;0.83;100.00;94426.19;5013358;28;20045;-74
2023/03/06 08:10:28;;;;;;;24.95;9.25;;;;;;;0.65;100.00;94426.41;5010763;28;20366;-74
2023/03/06 08:12:54;;;;;;;23.65;9.70;;;;;;;0.65;100.00;94431.59;5013572;28;20053;-73
2023/03/06 08:15:19;;;;;;;19.83;9.00;;;;;;;0.63;100.00;94433.59;5013271;28;20038;-76
2023/03/06 08:17:45;;;;;;;26.83;9.70;;;;;;;0.60;100.00;94428.91;5014055;28;20073;-73
2023/03/06 08:20:11;;;;;;;23.50;8.27;;;;;;;0.63;100.00;94428.44;5017511;28;20053;-76
2023/03/06 08:22:37;;;;;;;23.58;8.75;;;;;;;0.73;100.00;94433.78;5004328;28;20101;-76
2023/03/06 08:25:04;;;;;;;25.13;8.77;;;;;;;0.80;100.00;94431.81;5013903;28;20041;-74
2023/03/06 08:27:31;;;;;;;24.65;8.50;;;;;;;0.81;100.00;94430.81;5013392;28;20053;-73
2023/03/06 08:29:57;;;;;;;24.42;8.95;;;;;;;0.86;100.00;94422.31;5033177;28;20041;-76
2023/03/06 08:32:23;;;;;;;22.00;8.52;;;;;;;1.04;100.00;94423.91;5012698;28;20107;-76
2023/03/06 08:34:48;;;;;;;26.13;9.90;;;;;;;0.97;100.00;94439.59;5012740;28;20504;-76
2023/03/06 08:37:14;;;;;;;22.65;9.20;;;;;;;1.03;100.00;94438.69;5017236;28;20045;-76
2023/03/06 08:39:39;;;;;;;22.77;9.07;;;;;;;1.12;100.00;94441.66;5012049;28;20038;-76
2023/03/06 08:42:05;;;;;;;24.33;9.85;;;;;;;1.28;100.00;94449.66;5010886;28;20057;-76
2023/03/06 08:44:30;;;;;;;28.08;10.48;;;;;;;1.27;100.00;94442.91;5012999;28;20053;-76
2023/03/06 08:46:56;;;;;;;23.95;9.75;;;;;;;1.38;100.00;94449.81;5011806;28;20160;-75
2023/03/06 08:49:22;;;;;;;23.23;9.15;;;;;;;1.50;100.00;94437.53;5010489;28;20045;-75
2023/03/06 08:51:47;;;;;;;26.45;9.73;;;;;;;1.58;100.00;94438.16;5011038;28;20806;-75
2023/03/06 08:54:13;;;;;;;26.35;9.60;;;;;;;1.56;100.00;94439.16;5018665;28;20045;-75
2023/03/06 08:56:38;;;;;;;25.27;9.65;;;;;;;1.64;100.00;94447.56;5012494;28;20045;-76
2023/03/06 08:59:05;;;;;;;21.35;8.32;;;;;;;1.75;100.00;94459.66;5010709;28;20056;-75
2023/03/06 09:01:33;;;;;;;25.65;10.05;;;;;;;1.52;100.00;94451.06;5010761;28;20045;-75
2023/03/06 09:04:02;;;;;;;23.42;9.60;;;;;;;1.72;100.00;94457.53;5007660;28;20038;-73
2023/03/06 09:06:31;;;;;;;24.70;9.90;;;;;;;1.66;100.00;94453.31;5009864;28;20387;-75
2023/03/06 09:08:57;;;;;;;21.63;8.63;;;;;;;1.73;100.00;94446.16;5015514;28;20041;-77
2023/03/06 09:11:25;;;;;;;26.25;9.32;;;;;;;1.97;100.00;94440.72;5017257;28;20038;-78
2023/03/06 09:13:52;;;;;;;26.50;10.95;;;;;;;2.01;100.00;94436.63;5006693;28;20053;-78
2023/03/06 09:16:17;;;;;;;23.38;9.68;;;;;;;2.01;100.00;94441.81;5013497;28;20099;-78
2023/03/06 09:18:43;;;;;;;28.05;9.93;;;;;;;2.24;100.00;94446.78;5020182;28;20120;-77
2023/03/06 09:21:08;;;;;;;24.40;9.75;;;;;;;2.31;100.00;94448.38;5009751;28;20050;-76
2023/03/06 09:23:35;;;;;;;26.38;9.93;;;;;;;2.42;100.00;94444.88;5003318;28;20065;-75
2023/03/06 09:26:01;;;;;;;23.08;9.52;;;;;;;2.54;100.00;94450.72;5011525;28;20490;-78
2023/03/06 09:28:27;;;;;;;23.30;9.52;;;;;;;2.85;100.00;94451.00;5011214;28;20042;-75
2023/03/06 09:30:53;;;;;;;26.08;8.93;;;;;;;2.71;100.00;94440.22;5010563;28;20048;-73
2023/03/06 09:33:19;;;;;;;21.50;8.75;;;;;;;2.88;100.00;94445.31;5009078;28;20051;-74
2023/03/06 09:35:51;;;;;;;27.75;9.00;;;;;;;2.78;100.00;94443.41;5012172;28;20429;-74
2023/03/06 09:38:22;;;;;;;25.17;7.97;;;;;;;2.81;100.00;94452.53;5008739;28;20093;-75
2023/03/06 09:40:56;;;;;;;26.23;9.50;;;;;;;2.67;100.00;94453.94;5011387;28;20045;-73
2023/03/06 09:43:38;;;;;;;;;;;;;;;2.66;100.00;94452.38;5009267;28;20046;-75
2023/03/06 09:46:16;;;;;;;18.05;7.95;;;;;;;2.86;100.00;94451.78;5013990;28;19929;-74
2023/03/06 09:49:28;;;;;;;25.60;9.18;;;;;;;2.88;100.00;94444.53;5026992;28;20103;-75
2023/03/06 09:52:11;;;;;;;18.15;8.20;;;;;;;2.91;100.00;94450.00;4999773;28;20053;-73
2023/03/06 09:54:46;;;;;;;23.20;8.13;;;;;;;2.71;100.00;94440.22;5011416;28;20042;-73
2023/03/06 09:57:22;;;;;;;20.38;8.57;;;;;;;2.87;100.00;94442.97;5009832;28;20042;-75
2023/03/06 09:59:52;;;;;;;23.98;8.48;;;;;;;3.04;100.00;94445.44;5007489;28;20045;-74
2023/03/06 10:02:30;;;;;;;18.83;8.35;;;;;;;2.93;100.00;94442.78;5009214;28;20049;-73
2023/03/06 10:05:01;;;;;;;21.98;8.77;;;;;;;2.59;100.00;94448.16;5004128;28;20038;-73
2023/03/06 10:07:52;;;;;;;18.55;8.13;;;;;;;2.75;99.78;94445.72;5010514;28;20061;-74
2023/03/06 10:10:38;;;;;;;25.98;8.70;;;;;;;2.89;98.40;94444.28;5009746;28;20061;-73
2023/03/06 10:13:36;;;;;;;19.40;8.55;;;;;;;2.48;97.19;94451.69;5003750;28;20049;-73
2023/03/06 10:16:24;;;;;;;16.27;7.38;;;;;;;2.92;99.70;94446.41;5008723;28;20413;-72
2023/03/06 10:18:50;;;;;;;14.70;7.50;;;;;;;3.01;97.55;94438.16;5028188;28;20021;-73
2023/03/06 10:21:37;;;;;;;18.95;8.48;;;;;;;2.95;97.90;94448.50;5036557;28;20037;-73
2023/03/06 10:24:15;;;;;;;21.13;8.50;;;;;;;2.94;98.99;94444.34;5033618;28;20072;-72
2023/03/06 10:26:51;;;;;;;22.67;8.43;;;;;;;2.88;95.30;94445.31;5036153;28;20042;-71
2023/03/06 10:29:51;;;;;;;16.42;7.18;;;;;;;2.56;94.84;94451.25;5034922;28;20042;-74
2023/03/06 10:32:40;;;;;;;15.68;6.53;;;;;;;2.65;94.08;94445.63;5032677;28;20053;-74
2023/03/06 10:35:15;;;;;;;16.77;7.63;;;;;;;2.98;95.84;94446.44;5029422;28;20094;-69
2023/03/06 10:37:41;;;;;;;18.67;8.05;;;;;;;2.90;92.67;94438.06;5033132;28;20049;-71
2023/03/06 10:40:19;;;;;;;18.05;7.78;;;;;;;3.06;91.79;94445.97;5034296;28;20293;-72
2023/03/06 10:42:44;;;;;;;17.25;7.00;;;;;;;2.92;90.98;94435.22;5028243;28;20090;-73
2023/03/06 10:45:13;;;;;;;17.58;8.18;;;;;;;2.71;95.63;94437.63;5009790;28;20041;-74
2023/03/06 10:47:39;;;;;;;15.98;7.15;;;;;;;2.82;92.50;94437.75;5006978;28;20513;-74
2023/03/06 10:50:26;;;;;;;21.13;8.45;;;;;;;2.76;92.45;94436.91;5013704;28;20037;-75
2023/03/06 10:53:04;;;;;;;20.50;8.65;;;;;;;2.99;93.75;94435.00;5009707;28;20048;-75
2023/03/06 10:55:35;;;;;;;19.25;7.60;;;;;;;3.02;92.10;94434.53;5004800;28;20046;-73
2023/03/06 10:58:28;;;;;;;17.02;7.60;;;;;;;3.12;90.93;94434.59;5006974;28;20046;-75
2023/03/06 11:01:21;;;;;;;19.77;8.50;;;;;;;3.21;91.35;94427.13;5006432;28;20121;-76
2023/03/06 11:03:47;;;;;;;21.55;8.20;;;;;;;3.00;95.45;94420.97;5005220;28;20108;-77
2023/03/06 11:06:19;;;;;;;18.08;6.75;;;;;;;3.11;95.29;94427.84;5009322;28;20053;-75
2023/03/06 11:08:45;;;;;;;16.60;7.70;;;;;;;3.14;93.73;94424.72;5009073;28;20054;-76
2023/03/06 11:11:13;;;;;;;19.13;8.32;;;;;;;3.19;93.49;94423.97;5008868;28;20046;-76
2023/03/06 11:13:41;;;;;;;18.92;8.00;;;;;;;3.39;92.37;94425.94;5010637;28;20104;-77
2023/03/06 11:16:26;;;;;;;19.40;8.80;;;;;;;3.97;88.67;94408.56;5010052;28;20096;-77
2023/03/06 11:19:04;;;;;;;28.77;8.82;;;;;;;3.99;89.61;94406.50;5009785;28;20042;-76
2023/03/06 11:21:33;;;;;;;22.65;8.10;;;;;;;4.29;85.88;94406.84;5015263;28;20189;-76
2023/03/06 11:24:14;;;;;;;21.20;8.20;;;;;;;4.01;87.62;94395.03;5013283;28;20037;-76
2023/03/06 11:26:46;;;;;;;16.95;7.53;;;;;;;3.96;85.99;94396.56;5015258;28;20113;-76